Time;durP1;ratioP1;P1;durP2;ratioP2;P2;SDS_P1;SDS_P2;PMS_P1;PMS_P2;Temp;Humidity;BMP_temperature;BMP_pressure;BME280_temperature;BME280_humidity;BME280_pressure;Samples;Min_cycle;Max_cycle;Signal;HPM_P1;HPM_P2
2021/11/17 02:26:37;;;;;;;11.55;6.22;;;5.40;99.90;;;;;;5091155;28;20504;-68
2021/11/17 02:29:23;;;;;;;8.38;5.88;;;5.30;99.90;;;;;;5094130;28;20032;-68
2021/11/17 02:32:03;;;;;;;9.88;6.93;;;5.30;99.90;;;;;;5094689;28;20059;-68
2021/11/17 02:34:53;;;;;;;11.38;6.53;;;5.40;99.90;;;;;;5093946;28;20028;-68
2021/11/17 02:37:56;;;;;;;12.18;6.70;;;5.40;99.90;;;;;;5093743;28;20462;-68
2021/11/17 02:40:27;;;;;;;12.75;7.18;;;5.40;99.90;;;;;;5093162;28;20035;-68
2021/11/17 02:43:29;;;;;;;10.05;6.45;;;5.40;99.90;;;;;;5094280;28;20020;-68
2021/11/17 02:46:26;;;;;;;11.38;7.28;;;5.40;99.90;;;;;;5083361;28;20040;-68
2021/11/17 02:48:58;;;;;;;11.05;6.78;;;5.50;99.90;;;;;;5071877;28;20115;-69
2021/11/17 02:51:33;;;;;;;9.93;6.43;;;5.40;99.90;;;;;;5093011;28;20024;-69
2021/11/17 02:54:38;;;;;;;11.05;7.57;;;5.40;99.90;;;;;;5092191;28;20377;-69
2021/11/17 02:57:29;;;;;;;10.55;6.45;;;5.40;99.90;;;;;;5090453;28;20048;-69
2021/11/17 03:00:17;;;;;;;12.32;6.82;;;5.40;99.90;;;;;;5076176;28;20422;-68
2021/11/17 03:03:10;;;;;;;15.75;6.70;;;5.40;99.90;;;;;;5094078;28;20032;-68
2021/11/17 03:05:57;;;;;;;12.20;6.90;;;5.40;99.90;;;;;;5092622;28;20055;-68
2021/11/17 03:08:33;;;;;;;12.43;7.18;;;5.40;99.90;;;;;;5092823;28;20114;-69
2021/11/17 03:11:10;;;;;;;10.07;6.88;;;5.40;99.90;;;;;;5093622;28;20488;-68
2021/11/17 03:13:59;;;;;;;10.75;6.43;;;5.40;99.90;;;;;;5093617;28;20032;-68
2021/11/17 03:16:50;;;;;;;10.20;7.37;;;5.30;99.90;;;;;;5091166;28;20843;-68
2021/11/17 03:19:28;;;;;;;;;;;5.30;99.90;;;;;;5072497;28;20044;-68
2021/11/17 03:22:12;;;;;;;13.88;7.70;;;5.20;99.90;;;;;;5077694;28;20406;-68
2021/11/17 03:24:56;;;;;;;14.82;8.10;;;5.30;99.90;;;;;;5092720;28;20488;-68
2021/11/17 03:27:46;;;;;;;13.00;8.35;;;5.20;99.90;;;;;;5092864;28;20031;-68
2021/11/17 03:30:26;;;;;;;12.32;7.95;;;5.20;99.90;;;;;;5092436;28;20060;-68
2021/11/17 03:33:16;;;;;;;14.93;8.45;;;5.10;99.90;;;;;;5093498;28;20051;-68
2021/11/17 03:35:45;;;;;;;13.18;8.13;;;5.10;99.90;;;;;;5093437;28;20028;-68
2021/11/17 03:38:27;;;;;;;15.73;8.55;;;5.10;99.90;;;;;;5092303;28;20050;-69
2021/11/17 03:41:25;;;;;;;14.85;8.68;;;5.10;99.90;;;;;;5091866;28;20063;-68
2021/11/17 03:44:12;;;;;;;16.60;9.45;;;5.10;99.90;;;;;;5093249;28;20020;-68
2021/11/17 03:46:52;;;;;;;15.38;9.07;;;5.00;99.90;;;;;;5093167;28;20040;-68
2021/11/17 03:49:26;;;;;;;13.88;8.57;;;5.00;99.90;;;;;;5092678;28;20042;-68
2021/11/17 03:52:07;;;;;;;15.20;9.10;;;5.00;99.90;;;;;;5092774;28;20027;-68
2021/11/17 03:54:54;;;;;;;14.52;8.38;;;4.90;99.90;;;;;;5092417;28;20020;-68
2021/11/17 03:57:58;;;;;;;14.02;8.45;;;4.90;99.90;;;;;;5092255;28;20036;-68
2021/11/17 04:00:49;;;;;;;15.20;8.50;;;4.90;99.90;;;;;;5074257;28;20048;-68
2021/11/17 04:03:22;;;;;;;12.93;8.30;;;4.90;99.90;;;;;;5092171;28;20024;-68
2021/11/17 04:05:57;;;;;;;13.52;7.80;;;4.90;99.90;;;;;;5092778;28;20031;-68
2021/11/17 04:08:38;;;;;;;15.43;8.48;;;4.90;99.90;;;;;;5092024;28;20071;-69
2021/11/17 04:11:22;;;;;;;18.25;8.65;;;4.90;99.90;;;;;;5092528;28;20028;-68
2021/11/17 04:14:22;;;;;;;15.65;9.20;;;4.90;99.90;;;;;;5092855;28;20082;-68
2021/11/17 04:17:09;;;;;;;13.57;8.70;;;4.90;99.90;;;;;;5092719;28;20162;-68
2021/11/17 04:20:06;;;;;;;13.40;7.80;;;4.80;99.90;;;;;;5092096;28;20025;-68
2021/11/17 04:22:57;;;;;;;14.80;8.05;;;4.80;99.90;;;;;;5090557;28;20035;-68
2021/11/17 04:25:29;;;;;;;13.90;7.88;;;4.80;99.90;;;;;;5054368;28;20046;-68
2021/11/17 04:28:34;;;;;;;15.48;8.27;;;4.80;99.90;;;;;;5091163;28;20028;-68
2021/11/17 04:31:31;;;;;;;12.88;8.05;;;4.80;99.90;;;;;;5092042;28;20054;-67
2021/11/17 04:34:11;;;;;;;17.00;8.70;;;4.80;99.90;;;;;;5092401;28;20030;-68
2021/11/17 04:36:46;;;;;;;16.50;7.90;;;4.80;99.90;;;;;;5092286;28;20070;-67
2021/11/17 04:39:28;;;;;;;17.63;9.10;;;4.80;99.90;;;;;;5090138;28;20028;-67
2021/11/17 04:42:14;;;;;;;15.40;8.98;;;4.80;99.90;;;;;;5090652;28;20081;-68
2021/11/17 04:44:58;;;;;;;16.08;8.85;;;4.70;99.90;;;;;;5091478;28;20397;-67
2021/11/17 04:47:39;;;;;;;16.98;8.55;;;4.70;99.90;;;;;;5091171;28;20036;-68
2021/11/17 04:50:08;;;;;;;15.18;8.52;;;4.70;99.90;;;;;;5090322;28;20063;-67
2021/11/17 04:52:45;;;;;;;15.15;8.80;;;4.70;99.90;;;;;;5091185;28;20027;-67
2021/11/17 04:55:41;;;;;;;17.45;9.88;;;4.70;99.90;;;;;;5091621;28;20024;-67
2021/11/17 04:58:33;;;;;;;14.13;8.40;;;4.70;99.90;;;;;;5080793;28;20113;-67
2021/11/17 05:01:59;;;;;;;15.05;9.48;;;4.70;99.90;;;;;;5061005;28;20047;-68
2021/11/17 05:04:53;;;;;;;22.88;10.90;;;4.70;99.90;;;;;;5017405;28;20469;-68
2021/11/17 05:07:24;;;;;;;14.93;8.68;;;4.80;99.90;;;;;;5028603;28;20117;-68
2021/11/17 05:10:06;;;;;;;13.95;8.50;;;4.80;99.90;;;;;;5072402;28;20054;-68
2021/11/17 05:12:47;;;;;;;15.80;8.77;;;4.80;99.90;;;;;;5072637;28;20024;-68
2021/11/17 05:15:37;;;;;;;13.55;8.30;;;4.80;99.90;;;;;;5091152;28;20111;-68
2021/11/17 05:18:11;;;;;;;20.10;9.90;;;4.80;99.90;;;;;;5090636;28;20040;-69
2021/11/17 05:20:55;;;;;;;14.75;8.50;;;4.80;99.90;;;;;;5091249;28;20032;-68
2021/11/17 05:23:42;;;;;;;14.45;8.52;;;4.90;99.90;;;;;;5091061;28;20031;-67
2021/11/17 05:26:44;;;;;;;13.30;7.43;;;4.90;99.90;;;;;;5091580;28;20024;-67
2021/11/17 05:29:18;;;;;;;11.35;7.40;;;4.90;99.90;;;;;;5090332;28;20044;-68
2021/11/17 05:31:55;;;;;;;11.25;7.28;;;4.90;99.90;;;;;;5091893;28;20380;-68
2021/11/17 05:34:42;;;;;;;14.10;8.07;;;4.90;99.90;;;;;;5090965;28;20029;-67
2021/11/17 05:37:32;;;;;;;15.02;8.70;;;4.90;99.90;;;;;;5092068;28;20032;-68
2021/11/17 05:40:20;;;;;;;15.18;8.70;;;4.90;99.90;;;;;;5091602;28;20373;-68
2021/11/17 05:42:46;;;;;;;14.65;8.57;;;4.90;99.90;;;;;;5091741;28;20031;-68
2021/11/17 05:45:44;;;;;;;13.40;8.05;;;4.90;99.90;;;;;;5090810;28;20048;-67
2021/11/17 05:48:31;;;;;;;14.50;8.38;;;4.90;99.90;;;;;;5091329;28;20447;-67
2021/11/17 05:51:42;;;;;;;13.40;8.10;;;4.90;99.90;;;;;;5091394;28;20032;-68
2021/11/17 05:54:25;;;;;;;14.38;8.25;;;4.90;99.90;;;;;;5070566;28;20396;-68
2021/11/17 05:56:56;;;;;;;13.68;7.18;;;4.90;99.90;;;;;;5091020;28;20032;-67
2021/11/17 05:59:22;;;;;;;10.82;6.20;;;5.00;99.90;;;;;;5090956;28;20039;-68
2021/11/17 06:02:03;;;;;;;11.77;6.25;;;5.00;99.90;;;;;;5093819;28;20028;-68
2021/11/17 06:04:30;;;;;;;8.65;5.55;;;5.00;99.90;;;;;;5093246;28;20528;-68
2021/11/17 06:06:55;;;;;;;11.73;5.78;;;5.00;99.90;;;;;;5093691;28;20466;-69
2021/11/17 06:09:21;;;;;;;10.77;6.40;;;4.90;99.90;;;;;;5094404;28;20024;-67
2021/11/17 06:11:50;;;;;;;11.70;6.45;;;4.90;99.90;;;;;;5095007;28;20350;-68
2021/11/17 06:14:32;;;;;;;11.60;7.17;;;4.80;99.90;;;;;;5093835;28;20020;-67
2021/11/17 06:17:09;;;;;;;11.70;6.72;;;4.70;99.90;;;;;;5094385;28;20308;-68
2021/11/17 06:19:39;;;;;;;13.00;6.80;;;4.70;99.90;;;;;;5093467;28;20166;-68
2021/11/17 06:22:05;;;;;;;;;;;4.60;99.90;;;;;;5095265;28;20380;-67
2021/11/17 06:24:34;;;;;;;14.60;5.90;;;4.70;99.90;;;;;;5092505;28;19908;-68
2021/11/17 06:27:03;;;;;;;11.80;6.95;;;4.70;99.90;;;;;;5094326;28;20043;-67
2021/11/17 06:29:36;;;;;;;13.07;7.07;;;4.60;99.90;;;;;;5093479;28;20480;-72
2021/11/17 06:32:02;;;;;;;11.73;5.63;;;4.60;99.90;;;;;;5092750;28;20469;-68
2021/11/17 06:34:53;;;;;;;14.63;6.68;;;4.60;99.90;;;;;;5092724;28;20461;-67
2021/11/17 06:37:22;;;;;;;14.45;6.93;;;4.60;99.90;;;;;;5093585;28;20036;-68
2021/11/17 06:39:54;;;;;;;14.53;7.40;;;4.50;99.90;;;;;;5094340;28;20032;-67
2021/11/17 06:42:28;;;;;;;14.10;7.28;;;4.60;99.90;;;;;;5093671;28;20303;-67
2021/11/17 06:44:55;;;;;;;12.52;6.88;;;4.50;99.90;;;;;;5093232;28;20077;-68
2021/11/17 06:47:21;;;;;;;12.98;6.38;;;4.60;99.90;;;;;;5093442;28;20045;-68
2021/11/17 06:49:47;;;;;;;17.20;7.15;;;4.60;99.90;;;;;;5094446;28;20024;-68
2021/11/17 06:52:13;;;;;;;14.05;6.93;;;4.60;99.90;;;;;;5094286;28;20569;-67
2021/11/17 06:54:39;;;;;;;15.05;7.10;;;4.60;99.90;;;;;;5093666;28;20050;-72
2021/11/17 06:57:05;;;;;;;13.95;6.82;;;4.60;99.90;;;;;;5094196;28;20473;-68
2021/11/17 06:59:31;;;;;;;16.90;6.95;;;4.70;99.90;;;;;;5092832;28;20446;-70
2021/11/17 07:02:04;;;;;;;12.27;6.65;;;4.70;99.90;;;;;;5094111;28;20060;-70
2021/11/17 07:04:31;;;;;;;12.52;7.05;;;4.70;99.90;;;;;;5093083;28;20036;-69
2021/11/17 07:06:57;;;;;;;12.50;6.80;;;4.70;99.90;;;;;;5093806;28;20063;-68
2021/11/17 07:09:22;;;;;;;12.13;6.38;;;4.70;99.90;;;;;;5089769;28;20113;-69
2021/11/17 07:11:48;;;;;;;10.18;5.72;;;4.80;99.90;;;;;;5093521;28;20081;-69
2021/11/17 07:14:21;;;;;;;14.48;6.65;;;4.90;99.90;;;;;;5093394;28;20032;-69
2021/11/17 07:16:46;;;;;;;13.02;6.60;;;4.80;99.90;;;;;;5093388;28;20036;-69
2021/11/17 07:19:12;;;;;;;12.88;6.60;;;4.80;99.90;;;;;;5093350;28;20081;-69
2021/11/17 07:21:42;;;;;;;11.88;6.10;;;4.80;99.90;;;;;;5091307;28;20119;-69
2021/11/17 07:24:08;;;;;;;;;;;4.90;99.90;;;;;;5094013;28;20484;-68
2021/11/17 07:26:34;;;;;;;11.32;6.03;;;4.80;99.90;;;;;;5097363;28;19904;-68
2021/11/17 07:29:00;;;;;;;11.10;6.35;;;4.80;99.90;;;;;;5090948;28;20081;-68
2021/11/17 07:31:26;;;;;;;11.98;6.63;;;4.80;99.90;;;;;;5093323;28;20381;-71
2021/11/17 07:33:52;;;;;;;12.73;6.43;;;4.90;99.90;;;;;;5091301;28;20028;-68
2021/11/17 07:36:21;;;;;;;13.43;6.95;;;4.90;99.90;;;;;;5092594;28;20020;-69
2021/11/17 07:38:48;;;;;;;13.35;6.45;;;4.90;99.90;;;;;;5092445;28;20032;-68
2021/11/17 07:41:14;;;;;;;10.65;5.97;;;4.90;99.90;;;;;;5092082;28;20107;-68
2021/11/17 07:43:40;;;;;;;11.07;5.80;;;5.00;99.90;;;;;;5092029;28;20068;-69
2021/11/17 07:46:06;;;;;;;10.05;5.28;;;4.90;99.90;;;;;;5092145;28;20553;-68
2021/11/17 07:48:32;;;;;;;12.32;6.43;;;4.90;99.90;;;;;;5090474;28;20117;-68
2021/11/17 07:50:59;;;;;;;10.95;6.57;;;4.90;99.90;;;;;;5092733;28;20046;-69
2021/11/17 07:53:26;;;;;;;10.95;6.03;;;4.90;99.90;;;;;;5090453;28;20032;-68
2021/11/17 07:55:55;;;;;;;12.43;6.47;;;4.90;99.90;;;;;;5091668;28;20024;-68
2021/11/17 07:58:25;;;;;;;15.52;7.43;;;4.90;99.90;;;;;;5092102;28;20035;-69
2021/11/17 08:00:54;;;;;;;10.27;6.38;;;5.00;99.90;;;;;;5092081;28;20032;-69
2021/11/17 08:03:22;;;;;;;11.40;6.80;;;5.00;99.90;;;;;;5091681;28;20105;-69
2021/11/17 08:05:51;;;;;;;11.48;6.43;;;5.00;99.90;;;;;;5091367;28;20028;-69
2021/11/17 08:08:27;;;;;;;15.00;7.75;;;5.10;99.90;;;;;;5091380;28;20386;-69
2021/11/17 08:10:54;;;;;;;12.80;6.53;;;5.10;99.90;;;;;;5092538;28;20024;-69
2021/11/17 08:13:20;;;;;;;14.15;7.00;;;5.20;99.90;;;;;;5090273;28;20393;-69
2021/11/17 08:15:46;;;;;;;9.30;5.15;;;5.20;99.90;;;;;;5091894;28;20115;-69
2021/11/17 08:18:12;;;;;;;9.75;4.63;;;5.30;99.90;;;;;;5092893;28;20114;-69
2021/11/17 08:20:38;;;;;;;8.70;5.05;;;5.40;99.90;;;;;;5090534;28;20649;-69
2021/11/17 08:23:05;;;;;;;9.95;5.53;;;5.40;99.90;;;;;;5090631;28;20031;-70
2021/11/17 08:25:34;;;;;;;8.88;5.43;;;5.50;99.90;;;;;;5090638;28;20429;-69
2021/11/17 08:28:00;;;;;;;9.23;5.30;;;5.60;99.90;;;;;;5092224;28;20043;-70
2021/11/17 08:30:30;;;;;;;8.85;5.63;;;5.60;99.90;;;;;;5091078;28;20027;-69
2021/11/17 08:32:57;;;;;;;11.63;6.00;;;5.70;99.90;;;;;;5092234;28;20024;-69
2021/11/17 08:35:25;;;;;;;6.97;4.57;;;5.90;99.90;;;;;;5091193;28;20059;-69
2021/11/17 08:37:53;;;;;;;7.75;4.00;;;6.00;99.90;;;;;;5092227;28;20039;-69
2021/11/17 08:40:27;;;;;;;6.30;3.20;;;6.10;99.90;;;;;;5090614;28;20039;-70
2021/11/17 08:42:53;;;;;;;5.78;3.10;;;6.00;99.90;;;;;;5092028;28;20020;-70
2021/11/17 08:45:19;;;;;;;5.30;2.80;;;6.00;99.90;;;;;;5091340;28;20044;-69
2021/11/17 08:47:46;;;;;;;7.05;3.10;;;6.10;99.90;;;;;;5089319;28;20484;-70
2021/11/17 08:50:15;;;;;;;2.53;2.20;;;6.10;99.90;;;;;;5092150;28;20110;-70
2021/11/17 08:52:41;;;;;;;6.43;2.47;;;6.00;99.90;;;;;;5091034;28;20535;-69
2021/11/17 08:55:09;;;;;;;4.03;2.70;;;6.00;99.90;;;;;;5090685;28;20591;-69
2021/11/17 08:57:35;;;;;;;6.25;2.90;;;6.00;99.90;;;;;;5090839;28;20028;-69
2021/11/17 09:00:02;;;;;;;5.75;3.30;;;6.10;99.90;;;;;;5092165;28;20028;-69
2021/11/17 09:02:28;;;;;;;4.35;2.83;;;6.00;99.90;;;;;;5090767;28;20793;-69
2021/11/17 09:04:53;;;;;;;4.57;3.15;;;6.00;99.90;;;;;;5091293;28;20035;-69
2021/11/17 09:07:25;;;;;;;4.35;2.85;;;6.00;99.90;;;;;;5090243;28;20036;-69
2021/11/17 09:09:51;;;;;;;5.82;2.67;;;6.00;99.90;;;;;;5091347;28;20470;-69
2021/11/17 09:12:17;;;;;;;6.15;2.83;;;5.90;99.90;;;;;;5090438;28;20024;-69
2021/11/17 09:14:42;;;;;;;5.70;2.55;;;5.90;99.90;;;;;;5091115;28;20043;-69
2021/11/17 09:17:08;;;;;;;3.63;2.53;;;5.90;99.90;;;;;;5090943;28;20040;-69
2021/11/17 09:19:36;;;;;;;3.47;1.83;;;5.80;99.90;;;;;;5090943;28;20028;-69
2021/11/17 09:22:02;;;;;;;4.38;2.05;;;5.70;99.90;;;;;;5091734;28;20487;-69
2021/11/17 09:24:27;;;;;;;6.43;2.08;;;5.70;99.90;;;;;;5090886;28;20478;-70
2021/11/17 09:26:54;;;;;;;5.25;2.40;;;5.50;99.90;;;;;;5090612;28;20067;-69
2021/11/17 09:29:23;;;;;;;5.82;2.55;;;5.50;99.90;;;;;;5091697;28;20387;-69
2021/11/17 09:31:49;;;;;;;6.10;3.00;;;5.40;99.90;;;;;;5091999;28;20032;-69
2021/11/17 09:34:16;;;;;;;3.92;2.40;;;5.40;99.90;;;;;;5091945;28;20373;-69
2021/11/17 09:36:42;;;;;;;5.65;2.78;;;5.40;99.90;;;;;;5093452;28;20051;-69
2021/11/17 09:39:10;;;;;;;3.25;1.85;;;5.30;99.90;;;;;;5095533;28;20052;-69
2021/11/17 09:41:43;;;;;;;3.92;2.13;;;5.30;99.90;;;;;;5093535;28;20039;-69
2021/11/17 09:44:16;;;;;;;5.82;2.20;;;5.20;99.90;;;;;;5094742;28;20108;-69
2021/11/17 09:46:44;;;;;;;2.63;2.17;;;5.20;99.90;;;;;;5093024;28;20052;-69
2021/11/17 09:49:36;;;;;;;3.53;2.20;;;5.20;99.90;;;;;;5086485;28;20050;-69
2021/11/17 09:52:06;;;;;;;4.28;2.33;;;5.20;99.90;;;;;;5083580;28;20040;-69
2021/11/17 09:55:03;;;;;;;3.95;2.67;;;5.30;99.90;;;;;;5095202;28;20028;-69
2021/11/17 09:57:34;;;;;;;5.03;1.88;;;5.40;99.90;;;;;;5094374;28;20050;-70
2021/11/17 10:00:50;;;;;;;3.00;2.17;;;5.40;99.90;;;;;;5095132;28;20530;-69
2021/11/17 10:03:25;;;;;;;3.70;2.17;;;5.40;99.90;;;;;;5081297;28;20064;-69
2021/11/17 10:11:55;;;;;;;3.25;2.03;;;5.70;99.90;;;;;;5094126;28;20362;-68
2021/11/17 10:14:34;;;;;;;2.17;1.75;;;5.80;99.90;;;;;;5099097;28;20058;-69
2021/11/17 10:17:01;;;;;;;3.60;2.10;;;5.80;99.90;;;;;;5093506;28;20028;-68
2021/11/17 10:19:33;;;;;;;7.00;2.25;;;5.80;99.90;;;;;;5089884;28;20043;-69
2021/11/17 10:22:09;;;;;;;5.53;1.70;;;5.90;99.90;;;;;;5094592;28;20024;-69
2021/11/17 10:24:39;;;;;;;2.47;1.83;;;6.10;99.90;;;;;;5092879;28;20031;-69
2021/11/17 10:27:06;;;;;;;2.35;1.35;;;6.10;99.90;;;;;;5092881;28;20469;-69
2021/11/17 10:29:41;;;;;;;5.22;1.95;;;6.20;99.90;;;;;;5093795;28;20028;-69
2021/11/17 10:32:16;;;;;;;2.63;1.55;;;6.20;99.90;;;;;;5094473;28;20028;-69
2021/11/17 10:34:53;;;;;;;1.63;1.40;;;6.20;99.90;;;;;;5093591;28;20181;-69
2021/11/17 10:37:28;;;;;;;5.03;1.45;;;6.30;99.90;;;;;;5094207;28;20032;-69
2021/11/17 10:39:54;;;;;;;3.72;1.58;;;6.30;99.90;;;;;;5094079;28;20031;-69
2021/11/17 10:42:20;;;;;;;2.58;1.55;;;6.40;99.90;;;;;;5094436;28;20027;-68
2021/11/17 10:44:53;;;;;;;2.72;1.20;;;6.50;99.90;;;;;;5093109;28;20483;-68
2021/11/17 10:47:29;;;;;;;2.25;1.30;;;6.50;99.90;;;;;;5093232;28;20032;-68
2021/11/17 10:50:03;;;;;;;1.73;1.20;;;6.40;99.90;;;;;;5089379;28;20024;-69
2021/11/17 10:52:47;;;;;;;1.88;1.38;;;6.60;99.90;;;;;;5092601;28;20020;-69
2021/11/17 10:55:39;;;;;;;2.92;1.30;;;6.60;99.90;;;;;;5094013;28;20024;-69
2021/11/17 10:58:14;;;;;;;2.15;1.00;;;6.80;99.90;;;;;;5093906;28;20066;-69
2021/11/17 11:00:47;;;;;;;1.27;0.90;;;6.90;99.90;;;;;;5093044;28;20070;-69
2021/11/17 11:03:16;;;;;;;1.67;1.30;;;7.00;99.90;;;;;;5094172;28;20028;-69
2021/11/17 11:05:49;;;;;;;1.33;1.05;;;6.90;99.90;;;;;;5092743;28;20028;-69
2021/11/17 11:09:07;;;;;;;1.83;1.20;;;6.90;99.90;;;;;;5093857;28;20031;-69
2021/11/17 11:11:39;;;;;;;3.72;2.08;;;6.80;99.90;;;;;;5087822;28;20032;-69
2021/11/17 11:14:13;;;;;;;2.75;1.20;;;6.70;99.90;;;;;;5093009;28;20514;-69
2021/11/17 11:16:47;;;;;;;2.63;1.23;;;6.70;99.90;;;;;;5092350;28;20024;-69
2021/11/17 11:19:33;;;;;;;4.47;1.52;;;6.70;99.90;;;;;;5092363;28;20368;-69
2021/11/17 11:22:04;;;;;;;2.30;1.40;;;6.80;99.90;;;;;;5091277;28;20089;-69
2021/11/17 11:24:37;;;;;;;1.75;1.35;;;6.90;99.90;;;;;;5091355;28;20074;-69
2021/11/17 11:27:02;;;;;;;4.35;1.23;;;6.90;99.90;;;;;;5088597;28;20085;-69
2021/11/17 11:29:33;;;;;;;2.45;1.70;;;6.90;99.90;;;;;;5092099;28;20040;-69
2021/11/17 11:32:04;;;;;;;1.52;1.30;;;7.00;99.90;;;;;;5093230;28;20347;-69
2021/11/17 11:34:33;;;;;;;1.38;1.10;;;7.00;99.90;;;;;;5089685;28;20036;-70
2021/11/17 11:37:00;;;;;;;8.70;1.70;;;7.00;99.90;;;;;;5092868;28;20054;-69
2021/11/17 11:39:31;;;;;;;1.35;1.15;;;6.90;99.90;;;;;;5090110;28;20489;-69
2021/11/17 11:42:06;;;;;;;1.33;1.15;;;6.90;99.90;;;;;;5091464;28;20036;-69
2021/11/17 11:44:36;;;;;;;2.38;1.48;;;6.90;99.90;;;;;;5089633;28;20050;-69
2021/11/17 11:47:08;;;;;;;1.73;1.30;;;6.90;99.90;;;;;;5092087;28;20043;-69
2021/11/17 11:49:36;;;;;;;3.28;1.40;;;6.90;99.90;;;;;;5090961;28;20574;-68
2021/11/17 11:52:07;;;;;;;1.92;1.40;;;6.80;99.90;;;;;;5080255;28;20088;-69
2021/11/17 11:54:56;;;;;;;1.10;0.95;;;6.90;99.90;;;;;;5072878;28;20063;-69
2021/11/17 11:57:36;;;;;;;3.08;1.33;;;6.80;99.90;;;;;;5073670;28;20101;-68
2021/11/17 12:00:10;;;;;;;2.08;1.42;;;6.80;99.90;;;;;;5086310;28;20032;-68
2021/11/17 12:02:46;;;;;;;3.88;1.70;;;6.80;99.90;;;;;;5088251;28;20081;-68
2021/11/17 12:05:32;;;;;;;2.72;1.65;;;6.80;99.90;;;;;;5091795;28;20432;-68
2021/11/17 12:08:12;;;;;;;3.17;1.80;;;6.80;99.90;;;;;;5091480;28;20043;-68
2021/11/17 12:10:45;;;;;;;4.32;2.10;;;6.70;99.90;;;;;;5088850;28;20629;-68
2021/11/17 12:13:21;;;;;;;3.17;1.98;;;6.70;99.90;;;;;;5074301;28;20039;-68
2021/11/17 12:16:25;;;;;;;2.15;1.48;;;6.70;99.90;;;;;;5091556;28;20103;-69
2021/11/17 12:19:02;;;;;;;1.63;1.42;;;6.60;99.90;;;;;;5087271;28;20123;-69
2021/11/17 12:21:43;;;;;;;2.75;1.45;;;6.50;99.90;;;;;;5091215;28;20384;-69
2021/11/17 12:24:23;;;;;;;2.08;1.55;;;6.40;99.90;;;;;;5090774;28;20028;-69
2021/11/17 12:27:09;;;;;;;2.28;1.38;;;6.40;99.90;;;;;;5090772;28;20032;-69
2021/11/17 12:29:49;;;;;;;2.47;1.58;;;6.30;99.90;;;;;;5090518;28;20072;-69
2021/11/17 12:32:31;;;;;;;;;;;6.30;99.90;;;;;;5091448;28;20059;-69
2021/11/17 12:35:09;;;;;;;1.95;1.30;;;6.10;99.90;;;;;;5092016;28;19911;-68
2021/11/17 12:37:53;;;;;;;4.10;1.17;;;6.10;99.90;;;;;;5091138;28;20028;-68
2021/11/17 12:40:51;;;;;;;3.75;1.50;;;6.20;99.90;;;;;;5092141;28;20032;-68
2021/11/17 12:43:52;;;;;;;1.88;1.20;;;6.20;99.90;;;;;;5071742;28;20040;-68
2021/11/17 12:46:28;;;;;;;1.20;1.00;;;6.20;99.90;;;;;;5042986;28;20492;-68
2021/11/17 12:49:24;;;;;;;1.20;1.00;;;6.10;99.90;;;;;;5092146;28;20075;-68
2021/11/17 12:51:53;;;;;;;2.08;1.30;;;6.20;99.90;;;;;;5091616;28;20039;-68
2021/11/17 12:54:49;;;;;;;4.38;1.70;;;6.20;99.90;;;;;;5091668;28;20393;-68
2021/11/17 12:57:23;;;;;;;1.65;0.95;;;6.20;99.90;;;;;;5074455;28;20044;-68
2021/11/17 13:00:20;;;;;;;1.95;1.60;;;6.20;99.90;;;;;;5090268;28;20105;-68
2021/11/17 13:02:48;;;;;;;1.50;1.10;;;6.20;99.90;;;;;;5090563;28;20139;-68
2021/11/17 13:05:27;;;;;;;3.28;0.90;;;6.20;99.90;;;;;;5091524;28;20093;-68
2021/11/17 13:08:05;;;;;;;1.25;1.15;;;6.10;99.90;;;;;;5090681;28;20541;-68
2021/11/17 13:10:33;;;;;;;3.00;1.45;;;6.10;99.90;;;;;;5089873;28;20052;-68
2021/11/17 13:13:15;;;;;;;1.15;0.90;;;6.10;99.90;;;;;;5091651;28;20099;-68
2021/11/17 13:15:49;;;;;;;1.92;1.10;;;6.20;99.90;;;;;;5090380;28;20031;-68
2021/11/17 13:18:36;;;;;;;1.13;1.00;;;6.10;99.90;;;;;;5090108;28;20032;-69
2021/11/17 13:21:20;;;;;;;0.80;0.80;;;6.10;99.90;;;;;;5091949;28;20024;-69
2021/11/17 13:24:06;;;;;;;1.33;1.00;;;6.10;99.90;;;;;;5070524;28;20762;-69
2021/11/17 13:26:33;;;;;;;1.02;0.90;;;6.10;99.90;;;;;;5081021;28;20048;-69
2021/11/17 13:29:21;;;;;;;1.38;1.05;;;6.20;99.90;;;;;;5090334;28;20036;-69
2021/11/17 13:32:00;;;;;;;1.70;1.02;;;6.10;99.90;;;;;;5090457;28;20212;-69
2021/11/17 13:34:38;;;;;;;1.70;0.80;;;6.10;99.90;;;;;;5091383;28;20099;-69
2021/11/17 13:37:28;;;;;;;2.20;1.20;;;6.10;99.90;;;;;;5091619;28;20036;-69
2021/11/17 13:40:17;;;;;;;2.45;1.15;;;6.10;99.90;;;;;;5090260;28;20035;-69
2021/11/17 13:42:43;;;;;;;1.45;1.13;;;6.20;99.90;;;;;;5089799;28;20448;-69
2021/11/17 13:45:19;;;;;;;3.08;1.10;;;6.10;99.90;;;;;;5090267;28;20505;-69
2021/11/17 13:47:45;;;;;;;1.27;0.90;;;6.10;99.90;;;;;;5090170;28;20089;-69
2021/11/17 13:50:12;;;;;;;1.80;1.38;;;6.10;99.90;;;;;;5090560;28;20042;-69
2021/11/17 13:52:41;;;;;;;1.48;1.02;;;6.10;99.90;;;;;;5089871;28;20461;-69
2021/11/17 13:55:11;;;;;;;0.95;0.82;;;6.10;99.90;;;;;;5090647;28;20020;-69
2021/11/17 13:57:37;;;;;;;1.55;1.17;;;6.10;99.90;;;;;;5089032;28;20036;-69
2021/11/17 14:00:07;;;;;;;2.30;1.23;;;6.10;99.90;;;;;;5090737;28;20024;-70
2021/11/17 14:02:33;;;;;;;1.73;0.98;;;6.20;99.90;;;;;;5089074;28;20095;-69
2021/11/17 14:04:59;;;;;;;2.25;1.45;;;6.10;99.90;;;;;;5086408;28;20122;-70
2021/11/17 14:07:26;;;;;;;1.38;1.15;;;6.20;99.90;;;;;;5091560;28;20036;-68
2021/11/17 14:09:52;;;;;;;4.63;1.38;;;6.10;99.90;;;;;;5090164;28;20024;-68
2021/11/17 14:12:20;;;;;;;1.40;1.30;;;6.10;99.90;;;;;;5090979;28;20035;-68
2021/11/17 14:14:46;;;;;;;2.08;1.30;;;6.00;99.90;;;;;;5089652;28;20039;-67
2021/11/17 14:17:12;;;;;;;2.20;1.20;;;6.00;99.90;;;;;;5089664;28;20111;-67
2021/11/17 14:19:38;;;;;;;2.45;1.75;;;6.10;99.90;;;;;;5089184;28;20158;-67
2021/11/17 14:22:05;;;;;;;1.75;1.48;;;6.10;99.90;;;;;;5089595;28;20028;-68
2021/11/17 14:24:33;;;;;;;2.15;1.75;;;6.20;99.90;;;;;;5091833;28;20999;-68
2021/11/17 14:27:00;;;;;;;3.35;1.40;;;6.20;99.90;;;;;;5093445;28;20024;-68
2021/11/17 14:29:32;;;;;;;1.55;1.38;;;6.20;99.90;;;;;;5093258;28;20056;-68
2021/11/17 14:32:09;;;;;;;2.20;1.55;;;6.20;99.90;;;;;;5092786;28;20036;-68
2021/11/17 14:34:35;;;;;;;1.85;1.60;;;6.20;99.90;;;;;;5092309;28;20121;-68
2021/11/17 14:37:07;;;;;;;2.22;1.50;;;6.10;99.90;;;;;;5093525;28;20039;-68
2021/11/17 14:39:36;;;;;;;2.00;1.80;;;6.10;99.90;;;;;;5092127;28;20024;-69
2021/11/17 14:42:03;;;;;;;2.42;1.48;;;6.10;99.90;;;;;;5078145;28;20036;-68
2021/11/17 14:44:29;;;;;;;1.52;1.27;;;6.20;99.90;;;;;;5093715;28;20039;-68
2021/11/17 14:46:55;;;;;;;5.07;1.75;;;6.20;99.90;;;;;;5090807;28;20351;-67
2021/11/17 14:49:21;;;;;;;2.55;1.92;;;6.20;99.90;;;;;;5093418;28;20020;-68
2021/11/17 14:51:48;;;;;;;3.00;1.48;;;6.20;99.90;;;;;;5093012;28;20176;-70
2021/11/17 14:54:14;;;;;;;4.50;2.75;;;6.20;99.90;;;;;;5091853;28;20059;-72
2021/11/17 14:56:41;;;;;;;4.15;2.50;;;6.10;99.90;;;;;;5092488;28;20094;-69
2021/11/17 14:59:07;;;;;;;3.30;2.10;;;6.10;99.90;;;;;;5092902;28;20039;-69
2021/11/17 15:01:36;;;;;;;7.05;2.40;;;6.10;99.90;;;;;;5092483;28;20055;-70
2021/11/17 15:04:04;;;;;;;4.18;2.42;;;6.10;99.90;;;;;;5091495;28;20711;-69
2021/11/17 15:06:34;;;;;;;3.97;2.33;;;6.00;99.90;;;;;;5092065;28;20031;-69
2021/11/17 15:09:01;;;;;;;3.85;2.10;;;6.00;99.90;;;;;;5091644;28;20032;-69
2021/11/17 15:11:27;;;;;;;2.92;2.50;;;5.90;99.90;;;;;;5092747;28;20069;-69
2021/11/17 15:13:54;;;;;;;3.33;2.10;;;5.90;99.90;;;;;;5092341;28;20020;-69
2021/11/17 15:16:21;;;;;;;4.90;3.08;;;5.90;99.90;;;;;;5092813;28;20465;-69
2021/11/17 15:18:48;;;;;;;4.53;2.67;;;6.00;99.90;;;;;;5092067;28;20103;-69
2021/11/17 15:21:17;;;;;;;5.10;2.78;;;6.00;99.90;;;;;;5092467;28;20027;-69
2021/11/17 15:23:47;;;;;;;3.85;2.13;;;5.90;99.90;;;;;;5092055;28;20032;-69
2021/11/17 15:26:15;;;;;;;4.15;2.47;;;5.90;99.90;;;;;;5092988;28;20024;-69
2021/11/17 15:28:51;;;;;;;3.80;2.60;;;5.90;99.90;;;;;;5090373;28;20040;-69
2021/11/17 15:31:24;;;;;;;3.50;2.40;;;5.90;99.90;;;;;;5092901;28;20133;-69
2021/11/17 15:33:50;;;;;;;3.78;2.17;;;5.90;99.90;;;;;;5090838;28;20020;-69
2021/11/17 15:36:17;;;;;;;4.18;2.42;;;5.90;99.90;;;;;;5092794;28;20032;-69
2021/11/17 15:38:47;;;;;;;5.60;2.80;;;5.90;99.90;;;;;;5101202;28;20056;-69
2021/11/17 15:41:14;;;;;;;;;;;5.90;99.90;;;;;;5094748;28;20461;-68
2021/11/17 15:43:44;;;;;;;3.75;2.25;;;5.90;99.90;;;;;;5074423;28;19915;-69
2021/11/17 15:46:10;;;;;;;4.07;2.35;;;5.80;99.90;;;;;;5073791;28;20148;-69
2021/11/17 15:48:37;;;;;;;3.25;2.70;;;5.80;99.90;;;;;;5076843;28;20060;-69
2021/11/17 15:51:08;;;;;;;4.18;2.13;;;5.80;99.90;;;;;;5084378;28;20033;-69
2021/11/17 15:53:35;;;;;;;3.97;2.70;;;5.80;99.90;;;;;;5089027;28;20032;-70
2021/11/17 15:56:02;;;;;;;3.90;2.78;;;5.70;99.90;;;;;;5093064;28;20443;-69
2021/11/17 15:58:28;;;;;;;5.07;2.28;;;5.70;99.90;;;;;;5090867;28;20038;-69
2021/11/17 16:00:54;;;;;;;3.35;1.98;;;5.80;99.90;;;;;;5091605;28;20098;-69
2021/11/17 16:03:21;;;;;;;3.20;2.28;;;5.80;99.90;;;;;;5092130;28;20032;-69
2021/11/17 16:05:47;;;;;;;4.47;2.40;;;5.80;99.90;;;;;;5091602;28;20020;-69
2021/11/17 16:08:15;;;;;;;4.47;2.30;;;5.80;99.90;;;;;;5092102;28;20340;-69